sensor_id;sensor_type;location;lat;lon;timestamp;P1;durP1;ratioP1;P2;durP2;ratioP2
59239;SDS011;45010;53.640;10.578;2022-08-06T00:02:38;0.28;;;0.20;;
59239;SDS011;45010;53.640;10.578;2022-08-06T00:05:39;2.05;;;0.47;;
59239;SDS011;45010;53.640;10.578;2022-08-06T00:08:39;0.77;;;0.20;;
59239;SDS011;45010;53.640;10.578;2022-08-06T00:11:40;2.75;;;0.73;;
59239;SDS011;45010;53.640;10.578;2022-08-06T00:14:41;0.32;;;0.20;;
59239;SDS011;45010;53.640;10.578;2022-08-06T00:17:41;0.52;;;0.30;;
59239;SDS011;45010;53.640;10.578;2022-08-06T00:20:42;0.88;;;0.38;;
59239;SDS011;45010;53.640;10.578;2022-08-06T00:23:43;2.47;;;0.25;;
59239;SDS011;45010;53.640;10.578;2022-08-06T00:26:43;1.85;;;0.40;;
59239;SDS011;45010;53.640;10.578;2022-08-06T00:29:44;1.40;;;0.43;;
59239;SDS011;45010;53.640;10.578;2022-08-06T00:32:44;1.35;;;0.50;;
59239;SDS011;45010;53.640;10.578;2022-08-06T00:35:45;0.30;;;0.30;;
59239;SDS011;45010;53.640;10.578;2022-08-06T00:38:45;1.05;;;0.30;;
59239;SDS011;45010;53.640;10.578;2022-08-06T00:41:45;0.95;;;0.38;;
59239;SDS011;45010;53.640;10.578;2022-08-06T00:44:46;0.70;;;0.30;;
59239;SDS011;45010;53.640;10.578;2022-08-06T00:47:46;0.47;;;0.35;;
59239;SDS011;45010;53.640;10.578;2022-08-06T00:50:46;0.43;;;0.20;;
59239;SDS011;45010;53.640;10.578;2022-08-06T00:53:47;0.60;;;0.30;;
59239;SDS011;45010;53.640;10.578;2022-08-06T00:56:47;1.08;;;0.32;;
59239;SDS011;45010;53.640;10.578;2022-08-06T00:59:47;0.35;;;0.20;;
59239;SDS011;45010;53.640;10.578;2022-08-06T01:02:48;1.48;;;0.30;;
59239;SDS011;45010;53.640;10.578;2022-08-06T01:05:49;1.35;;;0.30;;
59239;SDS011;45010;53.640;10.578;2022-08-06T01:08:49;0.57;;;0.20;;
59239;SDS011;45010;53.640;10.578;2022-08-06T01:11:50;1.27;;;0.30;;
59239;SDS011;45010;53.640;10.578;2022-08-06T01:14:50;1.65;;;0.30;;
59239;SDS011;45010;53.640;10.578;2022-08-06T01:27:50;1.85;;;0.35;;
59239;SDS011;45010;53.640;10.578;2022-08-06T01:31:11;0.30;;;0.30;;
59239;SDS011;45010;53.640;10.578;2022-08-06T01:34:23;1.15;;;0.32;;
59239;SDS011;45010;53.640;10.578;2022-08-06T01:37:32;1.60;;;0.32;;
59239;SDS011;45010;53.640;10.578;2022-08-06T01:40:38;0.50;;;0.30;;
59239;SDS011;45010;53.640;10.578;2022-08-06T01:43:42;1.15;;;0.20;;
59239;SDS011;45010;53.640;10.578;2022-08-06T01:46:46;1.17;;;0.20;;
59239;SDS011;45010;53.640;10.578;2022-08-06T01:49:51;0.57;;;0.30;;
59239;SDS011;45010;53.640;10.578;2022-08-06T01:52:56;0.70;;;0.30;;
59239;SDS011;45010;53.640;10.578;2022-08-06T01:56:00;2.40;;;0.30;;
59239;SDS011;45010;53.640;10.578;2022-08-06T01:59:02;0.50;;;0.22;;
59239;SDS011;45010;53.640;10.578;2022-08-06T02:02:06;1.38;;;0.43;;
59239;SDS011;45010;53.640;10.578;2022-08-06T02:05:11;0.30;;;0.25;;
59239;SDS011;45010;53.640;10.578;2022-08-06T02:08:15;1.13;;;0.30;;
59239;SDS011;45010;53.640;10.578;2022-08-06T02:11:19;1.30;;;0.30;;
59239;SDS011;45010;53.640;10.578;2022-08-06T02:14:20;1.55;;;0.40;;
59239;SDS011;45010;53.640;10.578;2022-08-06T02:17:24;0.60;;;0.32;;
59239;SDS011;45010;53.640;10.578;2022-08-06T02:20:34;1.13;;;0.30;;
59239;SDS011;45010;53.640;10.578;2022-08-06T02:23:40;0.82;;;0.43;;
59239;SDS011;45010;53.640;10.578;2022-08-06T02:26:41;1.63;;;0.35;;
59239;SDS011;45010;53.640;10.578;2022-08-06T02:29:44;0.85;;;0.50;;
59239;SDS011;45010;53.640;10.578;2022-08-06T02:32:47;0.80;;;0.30;;
59239;SDS011;45010;53.640;10.578;2022-08-06T02:35:52;0.88;;;0.32;;
59239;SDS011;45010;53.640;10.578;2022-08-06T02:39:11;0.40;;;0.20;;
59239;SDS011;45010;53.640;10.578;2022-08-06T02:48:53;0.38;;;0.20;;
59239;SDS011;45010;53.640;10.578;2022-08-06T02:52:16;1.40;;;0.32;;
59239;SDS011;45010;53.640;10.578;2022-08-06T02:55:20;0.85;;;0.28;;
59239;SDS011;45010;53.640;10.578;2022-08-06T02:58:26;1.05;;;0.40;;
59239;SDS011;45010;53.640;10.578;2022-08-06T03:01:29;0.40;;;0.22;;
59239;SDS011;45010;53.640;10.578;2022-08-06T03:04:33;1.55;;;0.40;;
59239;SDS011;45010;53.640;10.578;2022-08-06T03:07:38;0.50;;;0.20;;
59239;SDS011;45010;53.640;10.578;2022-08-06T03:10:40;0.68;;;0.38;;
59239;SDS011;45010;53.640;10.578;2022-08-06T03:13:42;0.73;;;0.30;;
59239;SDS011;45010;53.640;10.578;2022-08-06T03:16:44;0.35;;;0.25;;
59239;SDS011;45010;53.640;10.578;2022-08-06T03:19:46;0.98;;;0.32;;
59239;SDS011;45010;53.640;10.578;2022-08-06T03:22:49;0.98;;;0.30;;
59239;SDS011;45010;53.640;10.578;2022-08-06T03:25:51;1.42;;;0.30;;
59239;SDS011;45010;53.640;10.578;2022-08-06T03:28:53;0.68;;;0.40;;
59239;SDS011;45010;53.640;10.578;2022-08-06T03:31:55;0.73;;;0.30;;
59239;SDS011;45010;53.640;10.578;2022-08-06T03:34:56;1.08;;;0.22;;
59239;SDS011;45010;53.640;10.578;2022-08-06T03:37:57;1.40;;;0.30;;
59239;SDS011;45010;53.640;10.578;2022-08-06T03:40:58;0.85;;;0.35;;
59239;SDS011;45010;53.640;10.578;2022-08-06T03:43:59;0.45;;;0.20;;
59239;SDS011;45010;53.640;10.578;2022-08-06T03:47:02;1.00;;;0.35;;
59239;SDS011;45010;53.640;10.578;2022-08-06T03:50:09;2.55;;;0.40;;
59239;SDS011;45010;53.640;10.578;2022-08-06T03:53:22;0.50;;;0.40;;
59239;SDS011;45010;53.640;10.578;2022-08-06T03:56:24;0.75;;;0.30;;
59239;SDS011;45010;53.640;10.578;2022-08-06T03:59:27;0.60;;;0.30;;
59239;SDS011;45010;53.640;10.578;2022-08-06T04:02:37;1.42;;;0.30;;
59239;SDS011;45010;53.640;10.578;2022-08-06T04:05:40;1.98;;;0.38;;
59239;SDS011;45010;53.640;10.578;2022-08-06T04:08:41;0.43;;;0.30;;
59239;SDS011;45010;53.640;10.578;2022-08-06T04:11:42;0.50;;;0.30;;
59239;SDS011;45010;53.640;10.578;2022-08-06T04:14:44;1.58;;;0.30;;
59239;SDS011;45010;53.640;10.578;2022-08-06T04:17:45;1.25;;;0.40;;
59239;SDS011;45010;53.640;10.578;2022-08-06T04:20:48;0.85;;;0.40;;
59239;SDS011;45010;53.640;10.578;2022-08-06T04:23:51;0.45;;;0.25;;
59239;SDS011;45010;53.640;10.578;2022-08-06T04:26:52;1.33;;;0.30;;
59239;SDS011;45010;53.640;10.578;2022-08-06T04:29:55;1.42;;;0.25;;
59239;SDS011;45010;53.640;10.578;2022-08-06T04:32:59;0.43;;;0.30;;
59239;SDS011;45010;53.640;10.578;2022-08-06T04:36:04;0.20;;;0.20;;
59239;SDS011;45010;53.640;10.578;2022-08-06T04:39:06;1.42;;;0.40;;
59239;SDS011;45010;53.640;10.578;2022-08-06T04:42:07;0.47;;;0.45;;
59239;SDS011;45010;53.640;10.578;2022-08-06T04:45:07;2.42;;;0.38;;
59239;SDS011;45010;53.640;10.578;2022-08-06T04:48:09;1.00;;;0.30;;
59239;SDS011;45010;53.640;10.578;2022-08-06T04:51:11;0.57;;;0.40;;
59239;SDS011;45010;53.640;10.578;2022-08-06T04:54:11;1.17;;;0.30;;
59239;SDS011;45010;53.640;10.578;2022-08-06T04:57:12;0.90;;;0.20;;
59239;SDS011;45010;53.640;10.578;2022-08-06T05:00:12;0.88;;;0.50;;
59239;SDS011;45010;53.640;10.578;2022-08-06T05:03:13;0.52;;;0.22;;
59239;SDS011;45010;53.640;10.578;2022-08-06T05:09:24;2.17;;;0.30;;
59239;SDS011;45010;53.640;10.578;2022-08-06T05:12:31;0.32;;;0.30;;
59239;SDS011;45010;53.640;10.578;2022-08-06T05:15:44;1.05;;;0.40;;
59239;SDS011;45010;53.640;10.578;2022-08-06T05:18:50;0.85;;;0.35;;
59239;SDS011;45010;53.640;10.578;2022-08-06T05:21:53;0.75;;;0.30;;
59239;SDS011;45010;53.640;10.578;2022-08-06T05:24:58;0.40;;;0.20;;
59239;SDS011;45010;53.640;10.578;2022-08-06T05:27:59;1.63;;;0.40;;
59239;SDS011;45010;53.640;10.578;2022-08-06T05:31:00;1.58;;;0.52;;
59239;SDS011;45010;53.640;10.578;2022-08-06T05:34:01;0.50;;;0.40;;
59239;SDS011;45010;53.640;10.578;2022-08-06T05:37:04;0.57;;;0.52;;
59239;SDS011;45010;53.640;10.578;2022-08-06T05:40:05;1.08;;;0.30;;
59239;SDS011;45010;53.640;10.578;2022-08-06T05:43:06;0.63;;;0.20;;
59239;SDS011;45010;53.640;10.578;2022-08-06T05:46:09;0.52;;;0.30;;
59239;SDS011;45010;53.640;10.578;2022-08-06T05:49:17;0.30;;;0.30;;
59239;SDS011;45010;53.640;10.578;2022-08-06T05:52:37;0.65;;;0.30;;
59239;SDS011;45010;53.640;10.578;2022-08-06T05:55:50;0.43;;;0.22;;
59239;SDS011;45010;53.640;10.578;2022-08-06T05:58:59;0.98;;;0.38;;
59239;SDS011;45010;53.640;10.578;2022-08-06T06:02:03;1.50;;;0.30;;
59239;SDS011;45010;53.640;10.578;2022-08-06T06:05:04;1.13;;;0.40;;
59239;SDS011;45010;53.640;10.578;2022-08-06T06:08:06;0.30;;;0.30;;
59239;SDS011;45010;53.640;10.578;2022-08-06T06:11:08;1.88;;;0.30;;
59239;SDS011;45010;53.640;10.578;2022-08-06T06:14:23;1.13;;;0.40;;
59239;SDS011;45010;53.640;10.578;2022-08-06T06:24:41;0.47;;;0.30;;
59239;SDS011;45010;53.640;10.578;2022-08-06T06:27:53;1.80;;;0.40;;
59239;SDS011;45010;53.640;10.578;2022-08-06T06:30:58;1.45;;;0.40;;
59239;SDS011;45010;53.640;10.578;2022-08-06T06:34:07;1.27;;;0.40;;
59239;SDS011;45010;53.640;10.578;2022-08-06T06:37:17;0.77;;;0.32;;
59239;SDS011;45010;53.640;10.578;2022-08-06T06:43:56;2.72;;;0.40;;
59239;SDS011;45010;53.640;10.578;2022-08-06T06:47:10;2.28;;;0.38;;
59239;SDS011;45010;53.640;10.578;2022-08-06T06:50:14;1.60;;;0.47;;
59239;SDS011;45010;53.640;10.578;2022-08-06T06:53:22;1.63;;;0.50;;
59239;SDS011;45010;53.640;10.578;2022-08-06T06:56:29;2.00;;;0.30;;
59239;SDS011;45010;53.640;10.578;2022-08-06T06:59:44;2.47;;;0.60;;
59239;SDS011;45010;53.640;10.578;2022-08-06T07:02:47;1.77;;;0.40;;
59239;SDS011;45010;53.640;10.578;2022-08-06T07:05:50;1.25;;;0.40;;
59239;SDS011;45010;53.640;10.578;2022-08-06T07:08:52;1.77;;;0.47;;
59239;SDS011;45010;53.640;10.578;2022-08-06T07:11:54;2.53;;;0.47;;
59239;SDS011;45010;53.640;10.578;2022-08-06T07:14:56;2.30;;;0.40;;
59239;SDS011;45010;53.640;10.578;2022-08-06T07:17:57;2.45;;;0.50;;
59239;SDS011;45010;53.640;10.578;2022-08-06T07:20:59;4.43;;;0.60;;
59239;SDS011;45010;53.640;10.578;2022-08-06T07:24:01;2.30;;;0.50;;
59239;SDS011;45010;53.640;10.578;2022-08-06T07:27:01;2.08;;;0.50;;
59239;SDS011;45010;53.640;10.578;2022-08-06T07:30:03;2.60;;;0.40;;
59239;SDS011;45010;53.640;10.578;2022-08-06T07:33:06;3.75;;;0.40;;
59239;SDS011;45010;53.640;10.578;2022-08-06T07:36:08;2.03;;;0.50;;
59239;SDS011;45010;53.640;10.578;2022-08-06T07:39:11;2.17;;;0.80;;
59239;SDS011;45010;53.640;10.578;2022-08-06T07:45:36;1.88;;;0.30;;
59239;SDS011;45010;53.640;10.578;2022-08-06T07:48:39;1.20;;;0.40;;
59239;SDS011;45010;53.640;10.578;2022-08-06T07:51:43;1.27;;;0.30;;
59239;SDS011;45010;53.640;10.578;2022-08-06T07:54:46;1.00;;;0.40;;
59239;SDS011;45010;53.640;10.578;2022-08-06T07:57:47;2.42;;;0.40;;
59239;SDS011;45010;53.640;10.578;2022-08-06T08:00:48;2.92;;;0.50;;
59239;SDS011;45010;53.640;10.578;2022-08-06T08:03:49;2.00;;;0.40;;
59239;SDS011;45010;53.640;10.578;2022-08-06T08:07:09;1.52;;;0.40;;
59239;SDS011;45010;53.640;10.578;2022-08-06T08:10:10;3.78;;;0.50;;
59239;SDS011;45010;53.640;10.578;2022-08-06T08:13:11;1.10;;;0.30;;
59239;SDS011;45010;53.640;10.578;2022-08-06T08:16:13;1.80;;;0.40;;
59239;SDS011;45010;53.640;10.578;2022-08-06T08:22:25;2.97;;;0.40;;
59239;SDS011;45010;53.640;10.578;2022-08-06T08:25:25;1.48;;;0.35;;
59239;SDS011;45010;53.640;10.578;2022-08-06T08:28:25;1.83;;;0.40;;
59239;SDS011;45010;53.640;10.578;2022-08-06T08:31:25;1.25;;;0.40;;
59239;SDS011;45010;53.640;10.578;2022-08-06T08:34:26;3.13;;;0.38;;
59239;SDS011;45010;53.640;10.578;2022-08-06T08:37:27;1.85;;;0.40;;
59239;SDS011;45010;53.640;10.578;2022-08-06T08:40:27;1.00;;;0.35;;
59239;SDS011;45010;53.640;10.578;2022-08-06T08:43:42;1.48;;;0.40;;
59239;SDS011;45010;53.640;10.578;2022-08-06T08:46:44;1.02;;;0.20;;
59239;SDS011;45010;53.640;10.578;2022-08-06T08:49:52;1.55;;;0.30;;
59239;SDS011;45010;53.640;10.578;2022-08-06T08:53:01;3.15;;;0.50;;
59239;SDS011;45010;53.640;10.578;2022-08-06T08:56:13;1.95;;;0.40;;
59239;SDS011;45010;53.640;10.578;2022-08-06T08:59:14;1.88;;;0.40;;
59239;SDS011;45010;53.640;10.578;2022-08-06T09:02:14;0.93;;;0.50;;
59239;SDS011;45010;53.640;10.578;2022-08-06T09:05:15;1.95;;;0.32;;
59239;SDS011;45010;53.640;10.578;2022-08-06T09:08:17;0.60;;;0.30;;
59239;SDS011;45010;53.640;10.578;2022-08-06T09:11:17;1.95;;;0.47;;
59239;SDS011;45010;53.640;10.578;2022-08-06T09:14:19;0.60;;;0.30;;
59239;SDS011;45010;53.640;10.578;2022-08-06T09:17:20;2.85;;;0.30;;
59239;SDS011;45010;53.640;10.578;2022-08-06T09:20:21;2.80;;;0.40;;
59239;SDS011;45010;53.640;10.578;2022-08-06T09:23:22;0.40;;;0.20;;
59239;SDS011;45010;53.640;10.578;2022-08-06T09:26:22;1.20;;;0.40;;
59239;SDS011;45010;53.640;10.578;2022-08-06T09:29:22;2.58;;;0.30;;
59239;SDS011;45010;53.640;10.578;2022-08-06T09:35:57;1.13;;;0.30;;
59239;SDS011;45010;53.640;10.578;2022-08-06T09:38:59;1.00;;;0.30;;
59239;SDS011;45010;53.640;10.578;2022-08-06T09:41:59;1.75;;;0.40;;
59239;SDS011;45010;53.640;10.578;2022-08-06T09:45:10;1.00;;;0.30;;
59239;SDS011;45010;53.640;10.578;2022-08-06T09:48:12;1.30;;;0.30;;
59239;SDS011;45010;53.640;10.578;2022-08-06T09:51:20;1.23;;;0.57;;
59239;SDS011;45010;53.640;10.578;2022-08-06T09:54:21;3.38;;;0.40;;
59239;SDS011;45010;53.640;10.578;2022-08-06T09:57:43;0.88;;;0.38;;
59239;SDS011;45010;53.640;10.578;2022-08-06T10:00:44;1.52;;;0.38;;
59239;SDS011;45010;53.640;10.578;2022-08-06T10:03:45;1.58;;;0.32;;
59239;SDS011;45010;53.640;10.578;2022-08-06T10:06:52;1.55;;;0.40;;
59239;SDS011;45010;53.640;10.578;2022-08-06T10:09:54;1.13;;;0.47;;
59239;SDS011;45010;53.640;10.578;2022-08-06T10:13:09;2.30;;;0.60;;
59239;SDS011;45010;53.640;10.578;2022-08-06T10:19:17;2.47;;;0.30;;
59239;SDS011;45010;53.640;10.578;2022-08-06T10:22:18;1.58;;;0.25;;
59239;SDS011;45010;53.640;10.578;2022-08-06T10:25:20;0.65;;;0.25;;
59239;SDS011;45010;53.640;10.578;2022-08-06T10:28:23;0.80;;;0.40;;
59239;SDS011;45010;53.640;10.578;2022-08-06T10:31:26;1.75;;;0.30;;
59239;SDS011;45010;53.640;10.578;2022-08-06T10:34:27;1.65;;;0.40;;
59239;SDS011;45010;53.640;10.578;2022-08-06T10:37:29;3.05;;;0.60;;
59239;SDS011;45010;53.640;10.578;2022-08-06T10:40:32;0.70;;;0.50;;
59239;SDS011;45010;53.640;10.578;2022-08-06T10:43:36;1.98;;;0.30;;
59239;SDS011;45010;53.640;10.578;2022-08-06T10:46:37;1.23;;;0.30;;
59239;SDS011;45010;53.640;10.578;2022-08-06T10:49:38;0.20;;;0.20;;
59239;SDS011;45010;53.640;10.578;2022-08-06T10:52:39;3.60;;;0.40;;
59239;SDS011;45010;53.640;10.578;2022-08-06T10:55:41;0.80;;;0.30;;
59239;SDS011;45010;53.640;10.578;2022-08-06T10:58:42;2.00;;;0.40;;
59239;SDS011;45010;53.640;10.578;2022-08-06T11:01:52;0.95;;;0.30;;
59239;SDS011;45010;53.640;10.578;2022-08-06T11:05:11;2.22;;;0.40;;
59239;SDS011;45010;53.640;10.578;2022-08-06T11:08:27;1.70;;;0.30;;
59239;SDS011;45010;53.640;10.578;2022-08-06T11:11:43;3.25;;;0.40;;
59239;SDS011;45010;53.640;10.578;2022-08-06T11:14:51;1.25;;;0.40;;
59239;SDS011;45010;53.640;10.578;2022-08-06T11:18:04;2.13;;;0.88;;
59239;SDS011;45010;53.640;10.578;2022-08-06T11:21:06;2.63;;;0.60;;
59239;SDS011;45010;53.640;10.578;2022-08-06T11:24:06;0.82;;;0.40;;
59239;SDS011;45010;53.640;10.578;2022-08-06T11:27:46;0.80;;;0.35;;
59239;SDS011;45010;53.640;10.578;2022-08-06T11:30:51;1.75;;;0.32;;
59239;SDS011;45010;53.640;10.578;2022-08-06T11:34:03;1.65;;;0.50;;
59239;SDS011;45010;53.640;10.578;2022-08-06T11:37:05;4.18;;;0.40;;
59239;SDS011;45010;53.640;10.578;2022-08-06T11:40:06;1.80;;;0.47;;
59239;SDS011;45010;53.640;10.578;2022-08-06T11:43:07;0.55;;;0.40;;
59239;SDS011;45010;53.640;10.578;2022-08-06T11:49:23;3.25;;;0.60;;
59239;SDS011;45010;53.640;10.578;2022-08-06T11:56:02;1.58;;;0.70;;
59239;SDS011;45010;53.640;10.578;2022-08-06T11:59:11;1.73;;;0.65;;
59239;SDS011;45010;53.640;10.578;2022-08-06T12:02:43;2.20;;;0.80;;
59239;SDS011;45010;53.640;10.578;2022-08-06T12:05:39;1.65;;;0.75;;
59239;SDS011;45010;53.640;10.578;2022-08-06T12:08:40;3.20;;;1.42;;
59239;SDS011;45010;53.640;10.578;2022-08-06T12:11:41;2.05;;;1.00;;
59239;SDS011;45010;53.640;10.578;2022-08-06T12:14:41;2.47;;;1.00;;
59239;SDS011;45010;53.640;10.578;2022-08-06T12:20:54;2.00;;;0.85;;
59239;SDS011;45010;53.640;10.578;2022-08-06T12:23:54;2.08;;;1.30;;
59239;SDS011;45010;53.640;10.578;2022-08-06T12:26:55;1.73;;;1.10;;
59239;SDS011;45010;53.640;10.578;2022-08-06T12:29:57;3.90;;;1.55;;
59239;SDS011;45010;53.640;10.578;2022-08-06T12:33:01;3.38;;;1.60;;
59239;SDS011;45010;53.640;10.578;2022-08-06T12:36:02;3.70;;;1.45;;
59239;SDS011;45010;53.640;10.578;2022-08-06T12:39:06;3.13;;;1.90;;
59239;SDS011;45010;53.640;10.578;2022-08-06T12:42:20;3.70;;;1.90;;
59239;SDS011;45010;53.640;10.578;2022-08-06T12:45:22;2.70;;;1.73;;
59239;SDS011;45010;53.640;10.578;2022-08-06T12:48:23;3.58;;;2.00;;
59239;SDS011;45010;53.640;10.578;2022-08-06T12:51:24;4.80;;;1.90;;
59239;SDS011;45010;53.640;10.578;2022-08-06T12:54:28;14.57;;;2.60;;
59239;SDS011;45010;53.640;10.578;2022-08-06T12:57:28;6.70;;;2.50;;
59239;SDS011;45010;53.640;10.578;2022-08-06T13:00:30;3.95;;;2.20;;
59239;SDS011;45010;53.640;10.578;2022-08-06T13:03:31;3.45;;;2.20;;
59239;SDS011;45010;53.640;10.578;2022-08-06T13:06:34;3.50;;;1.90;;
59239;SDS011;45010;53.640;10.578;2022-08-06T13:09:37;4.88;;;2.40;;
59239;SDS011;45010;53.640;10.578;2022-08-06T13:12:37;4.78;;;2.30;;
59239;SDS011;45010;53.640;10.578;2022-08-06T13:15:38;2.53;;;1.83;;
59239;SDS011;45010;53.640;10.578;2022-08-06T13:18:39;3.97;;;2.58;;
59239;SDS011;45010;53.640;10.578;2022-08-06T13:21:41;3.83;;;2.70;;
59239;SDS011;45010;53.640;10.578;2022-08-06T13:24:43;5.15;;;2.35;;
59239;SDS011;45010;53.640;10.578;2022-08-06T13:27:44;5.22;;;2.53;;
59239;SDS011;45010;53.640;10.578;2022-08-06T13:30:45;6.22;;;2.65;;
59239;SDS011;45010;53.640;10.578;2022-08-06T13:33:59;3.58;;;2.42;;
59239;SDS011;45010;53.640;10.578;2022-08-06T13:37:01;5.25;;;3.15;;
59239;SDS011;45010;53.640;10.578;2022-08-06T13:40:02;5.25;;;3.00;;
59239;SDS011;45010;53.640;10.578;2022-08-06T13:43:02;2.70;;;2.30;;
59239;SDS011;45010;53.640;10.578;2022-08-06T13:46:13;3.90;;;2.67;;
59239;SDS011;45010;53.640;10.578;2022-08-06T13:49:15;3.45;;;2.50;;
59239;SDS011;45010;53.640;10.578;2022-08-06T13:52:15;3.70;;;2.60;;
59239;SDS011;45010;53.640;10.578;2022-08-06T13:55:21;4.53;;;2.53;;
59239;SDS011;45010;53.640;10.578;2022-08-06T13:58:23;6.90;;;3.35;;
59239;SDS011;45010;53.640;10.578;2022-08-06T14:01:24;3.67;;;3.05;;
59239;SDS011;45010;53.640;10.578;2022-08-06T14:04:24;6.80;;;3.40;;
59239;SDS011;45010;53.640;10.578;2022-08-06T14:07:25;5.70;;;3.60;;
59239;SDS011;45010;53.640;10.578;2022-08-06T14:10:25;6.55;;;3.47;;
59239;SDS011;45010;53.640;10.578;2022-08-06T14:13:26;7.53;;;3.95;;
59239;SDS011;45010;53.640;10.578;2022-08-06T14:16:26;6.43;;;4.05;;
59239;SDS011;45010;53.640;10.578;2022-08-06T14:19:26;5.57;;;4.00;;
59239;SDS011;45010;53.640;10.578;2022-08-06T14:22:27;6.40;;;4.10;;
59239;SDS011;45010;53.640;10.578;2022-08-06T14:25:28;7.63;;;4.65;;
59239;SDS011;45010;53.640;10.578;2022-08-06T14:28:28;6.05;;;4.13;;
59239;SDS011;45010;53.640;10.578;2022-08-06T14:31:30;7.47;;;4.50;;
59239;SDS011;45010;53.640;10.578;2022-08-06T14:34:31;6.22;;;4.22;;
59239;SDS011;45010;53.640;10.578;2022-08-06T14:37:32;6.40;;;4.15;;
59239;SDS011;45010;53.640;10.578;2022-08-06T14:40:32;6.18;;;5.13;;
59239;SDS011;45010;53.640;10.578;2022-08-06T14:43:51;5.05;;;4.55;;
59239;SDS011;45010;53.640;10.578;2022-08-06T14:47:10;6.45;;;4.93;;
59239;SDS011;45010;53.640;10.578;2022-08-06T14:50:10;8.07;;;5.70;;
59239;SDS011;45010;53.640;10.578;2022-08-06T14:53:10;7.45;;;5.32;;
59239;SDS011;45010;53.640;10.578;2022-08-06T14:56:11;7.13;;;5.00;;
59239;SDS011;45010;53.640;10.578;2022-08-06T14:59:11;6.63;;;4.78;;
59239;SDS011;45010;53.640;10.578;2022-08-06T15:02:12;7.53;;;5.22;;
59239;SDS011;45010;53.640;10.578;2022-08-06T15:05:12;5.63;;;5.07;;
59239;SDS011;45010;53.640;10.578;2022-08-06T15:08:13;6.97;;;4.97;;
59239;SDS011;45010;53.640;10.578;2022-08-06T15:11:14;5.53;;;4.65;;
59239;SDS011;45010;53.640;10.578;2022-08-06T15:14:14;8.32;;;4.93;;
59239;SDS011;45010;53.640;10.578;2022-08-06T15:17:15;5.60;;;5.07;;
59239;SDS011;45010;53.640;10.578;2022-08-06T15:20:16;9.00;;;7.18;;
59239;SDS011;45010;53.640;10.578;2022-08-06T15:23:16;15.13;;;13.63;;
59239;SDS011;45010;53.640;10.578;2022-08-06T15:26:17;16.00;;;14.38;;
59239;SDS011;45010;53.640;10.578;2022-08-06T15:29:17;15.30;;;11.90;;
59239;SDS011;45010;53.640;10.578;2022-08-06T15:32:17;19.83;;;13.25;;
59239;SDS011;45010;53.640;10.578;2022-08-06T15:35:18;16.13;;;11.88;;
59239;SDS011;45010;53.640;10.578;2022-08-06T15:38:18;16.95;;;10.75;;
59239;SDS011;45010;53.640;10.578;2022-08-06T15:41:19;19.20;;;9.73;;
59239;SDS011;45010;53.640;10.578;2022-08-06T15:44:23;12.48;;;8.70;;
59239;SDS011;45010;53.640;10.578;2022-08-06T15:47:23;30.45;;;9.05;;
59239;SDS011;45010;53.640;10.578;2022-08-06T15:50:24;19.20;;;8.50;;
59239;SDS011;45010;53.640;10.578;2022-08-06T15:53:24;11.68;;;7.15;;
59239;SDS011;45010;53.640;10.578;2022-08-06T15:56:25;18.35;;;7.10;;
59239;SDS011;45010;53.640;10.578;2022-08-06T15:59:27;12.05;;;6.40;;
59239;SDS011;45010;53.640;10.578;2022-08-06T16:02:28;10.52;;;5.40;;
59239;SDS011;45010;53.640;10.578;2022-08-06T16:05:28;9.93;;;6.07;;
59239;SDS011;45010;53.640;10.578;2022-08-06T16:08:29;8.90;;;5.88;;
59239;SDS011;45010;53.640;10.578;2022-08-06T16:11:29;7.93;;;5.25;;
59239;SDS011;45010;53.640;10.578;2022-08-06T16:14:29;8.00;;;5.55;;
59239;SDS011;45010;53.640;10.578;2022-08-06T16:17:30;12.07;;;5.47;;
59239;SDS011;45010;53.640;10.578;2022-08-06T16:20:30;9.30;;;4.85;;
59239;SDS011;45010;53.640;10.578;2022-08-06T16:23:30;7.97;;;4.85;;
59239;SDS011;45010;53.640;10.578;2022-08-06T16:26:31;7.55;;;5.05;;
59239;SDS011;45010;53.640;10.578;2022-08-06T16:29:31;7.38;;;5.30;;
59239;SDS011;45010;53.640;10.578;2022-08-06T16:32:32;6.30;;;4.75;;
59239;SDS011;45010;53.640;10.578;2022-08-06T16:35:33;9.48;;;5.07;;
59239;SDS011;45010;53.640;10.578;2022-08-06T16:38:36;8.45;;;5.15;;
59239;SDS011;45010;53.640;10.578;2022-08-06T16:41:36;8.52;;;4.75;;
59239;SDS011;45010;53.640;10.578;2022-08-06T16:44:37;8.52;;;4.45;;
59239;SDS011;45010;53.640;10.578;2022-08-06T16:47:37;5.93;;;4.65;;
59239;SDS011;45010;53.640;10.578;2022-08-06T16:50:38;7.10;;;4.57;;
59239;SDS011;45010;53.640;10.578;2022-08-06T16:53:38;9.35;;;4.70;;
59239;SDS011;45010;53.640;10.578;2022-08-06T16:56:38;6.35;;;4.53;;
59239;SDS011;45010;53.640;10.578;2022-08-06T16:59:39;7.05;;;4.50;;
59239;SDS011;45010;53.640;10.578;2022-08-06T17:02:41;7.43;;;4.90;;
59239;SDS011;45010;53.640;10.578;2022-08-06T17:05:42;4.38;;;3.97;;
59239;SDS011;45010;53.640;10.578;2022-08-06T17:08:43;6.50;;;4.05;;
59239;SDS011;45010;53.640;10.578;2022-08-06T17:11:44;4.25;;;3.72;;
59239;SDS011;45010;53.640;10.578;2022-08-06T17:14:44;7.35;;;4.35;;
59239;SDS011;45010;53.640;10.578;2022-08-06T17:17:45;9.90;;;4.22;;
59239;SDS011;45010;53.640;10.578;2022-08-06T17:20:46;5.18;;;4.10;;
59239;SDS011;45010;53.640;10.578;2022-08-06T17:23:47;5.18;;;4.00;;
59239;SDS011;45010;53.640;10.578;2022-08-06T17:26:48;4.60;;;3.78;;
59239;SDS011;45010;53.640;10.578;2022-08-06T17:29:48;5.80;;;3.90;;
59239;SDS011;45010;53.640;10.578;2022-08-06T17:32:50;6.15;;;3.90;;
59239;SDS011;45010;53.640;10.578;2022-08-06T17:35:51;5.90;;;4.35;;
59239;SDS011;45010;53.640;10.578;2022-08-06T17:38:52;5.78;;;4.72;;
59239;SDS011;45010;53.640;10.578;2022-08-06T17:41:52;6.13;;;4.20;;
59239;SDS011;45010;53.640;10.578;2022-08-06T17:44:53;6.10;;;4.03;;
59239;SDS011;45010;53.640;10.578;2022-08-06T17:47:53;4.65;;;4.18;;
59239;SDS011;45010;53.640;10.578;2022-08-06T17:50:54;5.78;;;3.90;;
59239;SDS011;45010;53.640;10.578;2022-08-06T17:53:54;4.97;;;4.03;;
59239;SDS011;45010;53.640;10.578;2022-08-06T17:56:55;5.28;;;3.80;;
59239;SDS011;45010;53.640;10.578;2022-08-06T17:59:57;4.93;;;3.92;;
59239;SDS011;45010;53.640;10.578;2022-08-06T18:02:57;5.20;;;4.47;;
59239;SDS011;45010;53.640;10.578;2022-08-06T18:05:58;6.25;;;4.20;;
59239;SDS011;45010;53.640;10.578;2022-08-06T18:08:59;5.07;;;3.80;;
59239;SDS011;45010;53.640;10.578;2022-08-06T18:11:59;4.88;;;4.38;;
59239;SDS011;45010;53.640;10.578;2022-08-06T18:15:00;5.47;;;4.20;;
59239;SDS011;45010;53.640;10.578;2022-08-06T18:18:01;5.25;;;4.30;;
59239;SDS011;45010;53.640;10.578;2022-08-06T18:21:03;6.88;;;4.38;;
59239;SDS011;45010;53.640;10.578;2022-08-06T18:24:03;4.57;;;3.75;;
59239;SDS011;45010;53.640;10.578;2022-08-06T18:27:04;6.35;;;4.85;;
59239;SDS011;45010;53.640;10.578;2022-08-06T18:30:05;5.55;;;4.05;;
59239;SDS011;45010;53.640;10.578;2022-08-06T18:33:09;6.20;;;4.60;;
59239;SDS011;45010;53.640;10.578;2022-08-06T18:36:10;6.70;;;4.45;;
59239;SDS011;45010;53.640;10.578;2022-08-06T18:39:10;5.95;;;5.00;;
59239;SDS011;45010;53.640;10.578;2022-08-06T18:42:12;4.85;;;4.30;;
59239;SDS011;45010;53.640;10.578;2022-08-06T18:45:12;6.45;;;4.25;;
59239;SDS011;45010;53.640;10.578;2022-08-06T18:48:12;6.80;;;4.60;;
59239;SDS011;45010;53.640;10.578;2022-08-06T18:51:13;5.53;;;4.03;;
59239;SDS011;45010;53.640;10.578;2022-08-06T18:54:17;5.82;;;3.72;;
59239;SDS011;45010;53.640;10.578;2022-08-06T18:57:18;5.32;;;4.38;;
59239;SDS011;45010;53.640;10.578;2022-08-06T19:00:19;4.30;;;3.90;;